createdAt,value
2018-02-24T00:03:42.470Z,23.87
2018-02-24T00:06:19.675Z,24.37
2018-02-24T00:09:03.289Z,25.95
2018-02-24T00:11:37.226Z,23.40
2018-02-24T00:16:49.801Z,26.00
2018-02-24T00:19:23.556Z,25.92
2018-02-24T00:24:45.557Z,23.45
2018-02-24T00:27:15.533Z,26.55
2018-02-24T00:38:08.872Z,22.98
2018-02-24T00:41:01.041Z,23.58
2018-02-24T00:43:36.521Z,21.60
2018-02-24T01:46:08.196Z,22.50
2018-02-24T02:03:20.535Z,22.40
2018-02-24T02:30:10.668Z,24.40
2018-02-24T02:38:12.621Z,24.50
2018-02-24T02:46:27.413Z,22.95
2018-02-24T02:51:45.159Z,22.40
2018-02-24T02:54:19.550Z,23.90
2018-02-24T02:59:32.475Z,23.92
2018-02-24T03:02:01.422Z,24.48
2018-02-24T03:04:48.435Z,21.65
2018-02-24T03:10:03.582Z,23.23
2018-02-24T03:15:14.279Z,21.70
2018-02-24T03:17:46.524Z,22.30
2018-02-24T03:22:55.054Z,24.67
2018-02-24T03:25:24.623Z,23.87
2018-02-24T03:27:54.359Z,24.20
2018-02-24T03:30:25.195Z,19.17
2018-02-24T03:32:58.731Z,21.83
2018-02-24T03:35:33.750Z,22.73
2018-02-24T03:43:22.785Z,22.60
2018-02-24T06:13:44.261Z,22.13
2018-02-24T06:16:12.732Z,21.45
2018-02-24T06:18:41.790Z,25.75
2018-02-24T06:21:14.294Z,25.20
2018-02-24T06:23:43.220Z,23.80
2018-02-24T06:26:14.894Z,25.60
2018-02-24T06:29:00.433Z,25.62
2018-02-24T06:34:31.954Z,25.58
2018-02-24T06:39:39.155Z,23.83
2018-02-24T06:42:12.843Z,24.52
2018-02-24T07:48:15.097Z,20.45
2018-02-24T07:50:43.273Z,26.02
2018-02-24T07:53:11.513Z,23.98
2018-02-24T07:55:41.429Z,23.92
2018-02-24T08:00:49.485Z,26.17
2018-02-24T08:03:17.723Z,27.50
2018-02-24T08:05:52.326Z,25.88
2018-02-24T08:08:22.580Z,25.05
2018-02-24T08:10:50.760Z,24.58
2018-02-24T08:13:18.944Z,22.87
2018-02-24T08:15:49.061Z,25.00
2018-02-24T08:18:17.227Z,21.35
2018-02-24T08:20:45.618Z,24.48
2018-02-24T08:23:14.013Z,22.30
2018-02-24T08:25:42.238Z,24.98
2018-02-24T08:28:10.402Z,20.90
2018-02-24T08:30:38.565Z,23.62
2018-02-24T08:33:06.739Z,22.13
2018-02-24T08:35:35.775Z,22.92
2018-02-24T08:38:03.952Z,21.95
2018-02-24T08:40:32.863Z,21.62
2018-02-24T08:43:01.034Z,20.25
2018-02-24T08:45:34.974Z,18.77
2018-02-24T08:48:15.138Z,19.37
2018-02-24T08:50:43.314Z,20.48
2018-02-24T08:53:14.170Z,20.80
2018-02-24T09:01:32.675Z,18.92
2018-02-24T09:04:00.859Z,19.10
2018-02-24T09:06:29.866Z,18.58
2018-02-24T09:08:58.030Z,17.00
2018-02-24T09:11:26.881Z,19.75
2018-02-24T09:13:57.020Z,22.27
2018-02-24T09:16:25.318Z,20.35
2018-02-24T09:18:53.618Z,20.35
2018-02-24T09:21:22.574Z,17.77
2018-02-24T09:23:50.740Z,17.17
2018-02-24T09:26:40.821Z,17.35
2018-02-24T09:29:09.762Z,18.48
2018-02-24T09:31:40.891Z,18.95
2018-02-24T09:40:15.276Z,16.35
2018-02-24T10:03:25.159Z,14.98
2018-02-24T10:05:55.002Z,14.25
2018-02-24T10:08:23.728Z,13.57
2018-02-24T10:10:53.004Z,12.40
2018-02-24T10:13:21.173Z,12.15
2018-02-24T10:15:50.465Z,15.93
2018-02-24T10:18:18.630Z,11.55
2018-02-24T10:20:46.806Z,13.57
2018-02-24T10:23:15.039Z,12.27
2018-02-24T10:25:49.376Z,9.80
2018-02-24T10:28:17.605Z,10.95
2018-02-24T10:30:45.836Z,11.68
2018-02-24T10:33:13.997Z,11.57
2018-02-24T10:35:42.225Z,10.75
2018-02-24T10:38:10.383Z,11.77
2018-02-24T10:40:39.077Z,12.05
2018-02-24T10:43:07.259Z,11.82
2018-02-24T10:45:35.529Z,10.68
2018-02-24T10:48:03.709Z,11.60
2018-02-24T10:50:31.896Z,12.88
2018-02-24T10:53:00.056Z,11.90
2018-02-24T10:55:29.571Z,12.05
2018-02-24T10:57:57.746Z,10.48
2018-02-24T11:00:25.919Z,10.00
2018-02-24T11:02:54.879Z,10.88
2018-02-24T11:05:23.164Z,10.73
2018-02-24T11:07:51.323Z,12.63
2018-02-24T11:10:19.541Z,10.98
2018-02-24T11:12:49.673Z,10.50
2018-02-24T11:15:23.208Z,10.00
2018-02-24T11:17:51.397Z,9.43
2018-02-24T11:20:19.954Z,9.43
2018-02-24T11:22:49.101Z,9.77
2018-02-24T11:25:23.005Z,9.90
2018-02-24T11:27:52.085Z,9.90
2018-02-24T11:30:20.251Z,9.13
2018-02-24T11:32:50.617Z,9.10
2018-02-24T11:35:26.332Z,9.75
2018-02-24T11:37:54.506Z,9.77
2018-02-24T11:40:26.878Z,9.07
2018-02-24T11:42:55.031Z,9.18
2018-02-24T11:45:33.143Z,8.27
2018-02-24T11:48:01.290Z,8.00
2018-02-24T11:50:30.437Z,7.82
2018-02-24T11:52:58.910Z,8.70
2018-02-24T11:55:27.244Z,9.15
2018-02-24T11:57:55.403Z,9.88
2018-02-24T12:00:23.553Z,9.10
2018-02-24T12:02:51.706Z,7.55
2018-02-24T12:05:19.897Z,9.25
2018-02-24T12:07:48.049Z,7.65
2018-02-24T12:10:17.720Z,7.60
2018-02-24T12:12:45.891Z,9.05
2018-02-24T12:15:17.895Z,10.38
2018-02-24T12:17:46.654Z,10.50
2018-02-24T12:20:23.352Z,10.20
2018-02-24T12:22:51.530Z,11.50
2018-02-24T12:25:20.267Z,10.10
2018-02-24T12:27:48.455Z,11.30
2018-02-24T12:30:17.084Z,10.40
2018-02-24T12:32:45.813Z,10.38
2018-02-24T12:35:25.729Z,8.95
2018-02-24T12:37:53.895Z,10.82
2018-02-24T12:40:23.012Z,10.52
2018-02-24T12:42:52.908Z,9.80
2018-02-24T12:45:21.184Z,11.32
2018-02-24T12:47:49.465Z,10.65
2018-02-24T12:50:18.733Z,9.90
2018-02-24T12:52:46.918Z,9.85
2018-02-24T12:55:16.846Z,9.10
2018-02-24T12:57:46.027Z,6.65
2018-02-24T13:00:14.963Z,9.57
2018-02-24T13:02:45.062Z,8.13
2018-02-24T13:05:13.406Z,8.90
2018-02-24T13:07:42.716Z,8.52
2018-02-24T13:10:10.877Z,8.35
2018-02-24T13:12:39.061Z,8.95
2018-02-24T13:15:08.139Z,7.22
2018-02-24T13:17:36.344Z,8.27
2018-02-24T13:20:05.713Z,7.60
2018-02-24T13:22:34.756Z,9.07
2018-02-24T13:25:03.279Z,7.82
2018-02-24T13:27:32.938Z,9.80
2018-02-24T13:30:01.102Z,8.30
2018-02-24T13:32:31.701Z,9.88
2018-02-24T13:35:01.134Z,8.85
2018-02-24T13:37:30.055Z,7.75
2018-02-24T13:39:58.545Z,8.95
2018-02-24T13:42:26.709Z,8.60
2018-02-24T13:44:55.054Z,8.48
2018-02-24T13:47:26.166Z,7.57
2018-02-24T13:49:55.350Z,9.55
2018-02-24T13:52:23.996Z,10.93
2018-02-24T13:54:59.635Z,9.20
2018-02-24T13:57:29.602Z,7.65
2018-02-24T13:59:58.648Z,11.12
2018-02-24T14:02:29.026Z,10.85
2018-02-24T14:05:06.342Z,10.55
2018-02-24T14:07:34.571Z,8.95
2018-02-24T14:10:02.866Z,10.63
2018-02-24T14:12:31.040Z,11.27
2018-02-24T14:14:59.196Z,10.30
2018-02-24T14:17:28.493Z,10.82
2018-02-24T14:19:56.653Z,11.60
2018-02-24T14:22:26.545Z,11.52
2018-02-24T14:24:54.775Z,12.30
2018-02-24T14:27:22.929Z,12.63
2018-02-24T14:29:51.084Z,12.70
2018-02-24T14:32:20.242Z,11.23
2018-02-24T14:34:48.786Z,13.02
2018-02-24T14:37:17.132Z,11.20
2018-02-24T14:39:47.119Z,11.95
2018-02-24T14:42:15.317Z,11.30
2018-02-24T14:44:43.669Z,11.98
2018-02-24T14:47:13.646Z,10.75
2018-02-24T14:49:41.822Z,10.50
2018-02-24T14:52:10.859Z,10.82
2018-02-24T14:54:47.092Z,10.95
2018-02-24T14:57:25.660Z,10.77
2018-02-24T14:59:53.821Z,11.50
2018-02-24T15:02:28.206Z,10.38
2018-02-24T15:04:56.683Z,10.95
2018-02-24T15:07:25.264Z,9.52
2018-02-24T15:09:54.263Z,8.38
2018-02-24T15:12:22.412Z,10.98
2018-02-24T15:15:00.684Z,10.80
2018-02-24T15:17:30.254Z,9.77
2018-02-24T15:20:04.902Z,9.68
2018-02-24T15:22:33.095Z,8.15
2018-02-24T15:25:01.316Z,8.70
2018-02-24T15:27:29.497Z,8.45
2018-02-24T15:29:57.653Z,9.35
2018-02-24T15:32:28.080Z,8.32
2018-02-24T15:34:56.254Z,9.10
2018-02-24T15:39:59.773Z,9.68
2018-02-24T15:51:30.903Z,8.35
2018-02-24T15:53:59.086Z,8.68
2018-02-24T15:56:27.282Z,8.80
2018-02-24T15:58:55.462Z,7.95
2018-02-24T16:01:23.629Z,8.35
2018-02-24T16:03:52.567Z,8.52
2018-02-24T16:06:20.729Z,8.50
2018-02-24T16:08:49.651Z,6.03
2018-02-24T16:11:18.752Z,8.10
2018-02-24T16:13:46.967Z,6.72
2018-02-24T16:16:15.183Z,8.98
2018-02-24T16:18:44.859Z,8.52
2018-02-24T16:21:13.038Z,7.65
2018-02-24T16:23:41.969Z,11.73
2018-02-24T16:26:12.005Z,11.18
2018-02-24T16:28:40.173Z,19.60
2018-02-24T16:31:08.350Z,9.00
2018-02-24T16:33:36.522Z,7.85
2018-02-24T16:36:04.683Z,6.70
2018-02-24T16:38:34.316Z,7.10
2018-02-24T16:41:03.309Z,6.68
2018-02-24T16:43:31.535Z,5.25
2018-02-24T16:45:59.840Z,6.45
2018-02-24T16:48:30.116Z,6.87
2018-02-24T16:50:58.287Z,5.40
2018-02-24T16:53:27.946Z,7.43
2018-02-24T16:55:56.212Z,6.68
2018-02-24T16:58:26.048Z,6.70
2018-02-24T17:00:54.307Z,7.20
2018-02-24T17:03:23.231Z,6.70
2018-02-24T17:05:52.846Z,6.97
2018-02-24T17:08:21.037Z,7.65
2018-02-24T17:10:49.305Z,6.50
2018-02-24T17:13:18.373Z,5.90
2018-02-24T17:15:47.501Z,5.90
2018-02-24T17:18:16.850Z,7.37
2018-02-24T17:20:45.156Z,7.93
2018-02-24T17:23:14.687Z,6.78
2018-02-24T17:25:43.722Z,7.22
2018-02-24T17:28:12.770Z,6.40
2018-02-24T17:30:41.552Z,7.35
2018-02-24T17:33:09.746Z,6.55
2018-02-24T17:35:39.688Z,7.95
2018-02-24T17:38:10.266Z,8.02
2018-02-24T17:40:39.835Z,6.72
2018-02-24T17:43:08.082Z,7.35
2018-02-24T17:45:38.893Z,7.25
2018-02-24T17:48:07.818Z,7.82
2018-02-24T17:50:37.974Z,7.85
2018-02-24T17:53:06.990Z,7.45
2018-02-24T17:55:35.915Z,7.53
2018-02-24T17:58:04.155Z,6.40
2018-02-24T18:00:32.311Z,6.70
2018-02-24T18:03:01.597Z,8.05
2018-02-24T18:05:37.169Z,8.23
2018-02-24T18:08:05.379Z,5.62
2018-02-24T18:10:42.116Z,7.47
2018-02-24T18:13:11.113Z,7.30
2018-02-24T18:15:39.361Z,7.80
2018-02-24T18:18:07.615Z,6.53
2018-02-24T18:20:36.290Z,6.60
2018-02-24T18:23:04.520Z,6.30
2018-02-24T18:25:37.981Z,7.70
2018-02-24T18:28:07.685Z,10.82
2018-02-24T18:30:35.915Z,7.28
2018-02-24T18:33:04.601Z,7.70
2018-02-24T18:35:35.447Z,7.95
2018-02-24T18:38:03.614Z,9.27
2018-02-24T18:40:32.960Z,6.80
2018-02-24T18:43:02.017Z,7.10
2018-02-24T18:45:31.143Z,6.97
2018-02-24T18:48:00.635Z,8.40
2018-02-24T18:50:31.025Z,8.80
2018-02-24T18:53:00.649Z,7.60
2018-02-24T18:55:30.832Z,7.55
2018-02-24T18:57:59.451Z,7.90
2018-02-24T19:00:30.751Z,8.73
2018-02-24T19:03:00.964Z,8.40
2018-02-24T19:05:30.913Z,8.45
2018-02-24T19:08:04.186Z,8.70
2018-02-24T19:13:08.909Z,8.55
2018-02-24T19:15:39.418Z,8.20
2018-02-24T19:18:10.983Z,9.90
2018-02-24T19:20:40.769Z,9.75
2018-02-24T19:23:09.782Z,10.18
2018-02-24T19:25:43.731Z,9.95
2018-02-24T19:37:36.899Z,7.87
2018-02-24T19:40:07.923Z,8.95
2018-02-24T19:42:51.854Z,9.50
2018-02-24T19:45:28.861Z,11.05
2018-02-24T19:47:58.033Z,8.73
2018-02-24T19:50:28.634Z,9.07
2018-02-24T19:52:56.863Z,7.72
2018-02-24T19:55:26.694Z,7.65
2018-02-24T19:57:57.563Z,8.90
2018-02-24T20:00:27.282Z,8.07
2018-02-24T20:02:59.083Z,7.72
2018-02-24T20:05:32.599Z,8.60
2018-02-24T20:08:11.142Z,8.35
2018-02-24T20:14:10.316Z,5.57
2018-02-24T20:19:43.067Z,8.05
2018-02-24T20:51:24.547Z,6.75
2018-02-24T21:08:04.154Z,6.62
2018-02-24T21:32:55.218Z,7.78
2018-02-24T21:46:41.991Z,7.68
2018-02-24T21:49:15.292Z,7.95
2018-02-24T21:54:52.343Z,7.03
2018-02-24T21:57:23.988Z,7.40
2018-02-24T22:03:00.716Z,7.10
2018-02-24T22:05:32.935Z,6.78
2018-02-24T22:08:05.386Z,8.50
2018-02-24T22:13:25.288Z,5.15
2018-02-24T22:18:42.091Z,8.70
2018-02-24T22:21:13.371Z,8.27
2018-02-24T22:23:45.307Z,7.40
2018-02-24T22:34:42.477Z,7.45
2018-02-24T22:45:26.576Z,7.37
2018-02-24T22:48:07.906Z,7.75
2018-02-24T22:53:20.529Z,6.30
2018-02-24T22:55:58.339Z,8.00
2018-02-24T23:13:03.589Z,5.12
